KAFO/AFO METAR and TAF weather

Enter ICAO airport designator
Station Type Date Time Source
KAFO METAR 2019/12/16 03:35 UTC NOAA

KAFO 160335Z AUTO 00000KT 1 3/4SM -SN OVC018 M15/M17 A3002 RMK AO2 VIS 1 1/4V2 1/2


Station Type Date Time Source
KAFO Decoded METAR 2019/12/16 03:35 UTC NOAA

Station name not available
Dec 15, 2019 - 10:35 PM EST / 2019.12.16 0335 UTC
Wind: Calm:0
Visibility: 1 3/4 mile(s):0
Sky conditions: overcast
Weather: light snow
Temperature: 5 F (-15 C)
Dew Point: 1 F (-17 C)
Relative Humidity: 84%
Pressure (altimeter): 30.02 in. Hg (1016 hPa)
ob: KAFO 160335Z AUTO 00000KT 1 3/4SM -SN OVC018 M15/M17 A3002 RMK AO2 VIS 1 1/4V2 1/2
cycle: 3

Station Type Date Time Source
KAFO TAF UTC NOAA

Error!

Example: see airport list